sensor_id;sensor_type;location;lat;lon;timestamp;P1;durP1;ratioP1;P2;durP2;ratioP2
58615;SDS011;44385;51.992;4.206;2023-08-12T00:00:39;6.95;;;3.40;;
58615;SDS011;44385;51.992;4.206;2023-08-12T00:03:06;8.38;;;4.15;;
58615;SDS011;44385;51.992;4.206;2023-08-12T00:05:34;9.18;;;3.70;;
58615;SDS011;44385;51.992;4.206;2023-08-12T00:08:02;7.28;;;3.90;;
58615;SDS011;44385;51.992;4.206;2023-08-12T00:10:28;6.65;;;3.65;;
58615;SDS011;44385;51.992;4.206;2023-08-12T00:12:55;8.95;;;3.60;;
58615;SDS011;44385;51.992;4.206;2023-08-12T00:15:22;8.63;;;3.50;;
58615;SDS011;44385;51.992;4.206;2023-08-12T00:17:48;9.40;;;4.13;;
58615;SDS011;44385;51.992;4.206;2023-08-12T00:20:15;6.97;;;3.47;;
58615;SDS011;44385;51.992;4.206;2023-08-12T00:22:44;6.25;;;3.70;;
58615;SDS011;44385;51.992;4.206;2023-08-12T00:25:10;9.85;;;4.10;;
58615;SDS011;44385;51.992;4.206;2023-08-12T00:27:36;8.20;;;3.60;;
58615;SDS011;44385;51.992;4.206;2023-08-12T00:30:04;9.00;;;3.45;;
58615;SDS011;44385;51.992;4.206;2023-08-12T00:32:30;9.38;;;3.90;;
58615;SDS011;44385;51.992;4.206;2023-08-12T00:34:57;7.45;;;3.63;;
58615;SDS011;44385;51.992;4.206;2023-08-12T00:37:24;7.65;;;3.70;;
58615;SDS011;44385;51.992;4.206;2023-08-12T00:39:51;10.13;;;3.92;;
58615;SDS011;44385;51.992;4.206;2023-08-12T00:42:18;10.90;;;4.10;;
58615;SDS011;44385;51.992;4.206;2023-08-12T00:44:47;8.95;;;4.07;;
58615;SDS011;44385;51.992;4.206;2023-08-12T00:47:13;6.78;;;3.95;;
58615;SDS011;44385;51.992;4.206;2023-08-12T00:49:40;9.73;;;4.38;;
58615;SDS011;44385;51.992;4.206;2023-08-12T00:52:08;10.32;;;4.63;;
58615;SDS011;44385;51.992;4.206;2023-08-12T00:54:35;10.85;;;4.85;;
58615;SDS011;44385;51.992;4.206;2023-08-12T00:57:03;7.68;;;3.95;;
58615;SDS011;44385;51.992;4.206;2023-08-12T00:59:32;10.60;;;4.22;;
58615;SDS011;44385;51.992;4.206;2023-08-12T01:02:01;14.13;;;4.88;;
58615;SDS011;44385;51.992;4.206;2023-08-12T01:04:27;10.40;;;4.70;;
58615;SDS011;44385;51.992;4.206;2023-08-12T01:06:53;8.43;;;3.95;;
58615;SDS011;44385;51.992;4.206;2023-08-12T01:09:20;5.90;;;3.83;;
58615;SDS011;44385;51.992;4.206;2023-08-12T01:11:48;4.63;;;3.47;;
58615;SDS011;44385;51.992;4.206;2023-08-12T01:14:18;7.13;;;3.97;;
58615;SDS011;44385;51.992;4.206;2023-08-12T01:16:46;5.57;;;4.05;;
58615;SDS011;44385;51.992;4.206;2023-08-12T01:19:17;8.57;;;4.73;;
58615;SDS011;44385;51.992;4.206;2023-08-12T01:21:49;8.98;;;3.97;;
58615;SDS011;44385;51.992;4.206;2023-08-12T01:24:20;11.50;;;4.97;;
58615;SDS011;44385;51.992;4.206;2023-08-12T01:26:46;9.98;;;4.47;;
58615;SDS011;44385;51.992;4.206;2023-08-12T01:29:12;6.93;;;3.85;;
58615;SDS011;44385;51.992;4.206;2023-08-12T01:31:40;6.82;;;4.03;;
58615;SDS011;44385;51.992;4.206;2023-08-12T01:34:10;6.90;;;4.82;;
58615;SDS011;44385;51.992;4.206;2023-08-12T01:36:38;10.65;;;4.88;;
58615;SDS011;44385;51.992;4.206;2023-08-12T01:39:06;12.52;;;5.03;;
58615;SDS011;44385;51.992;4.206;2023-08-12T01:41:35;9.52;;;4.57;;
58615;SDS011;44385;51.992;4.206;2023-08-12T01:44:02;9.75;;;5.30;;
58615;SDS011;44385;51.992;4.206;2023-08-12T01:46:28;7.82;;;4.97;;
58615;SDS011;44385;51.992;4.206;2023-08-12T01:48:57;10.95;;;5.53;;
58615;SDS011;44385;51.992;4.206;2023-08-12T01:51:25;8.57;;;4.50;;
58615;SDS011;44385;51.992;4.206;2023-08-12T01:53:52;10.55;;;5.95;;
58615;SDS011;44385;51.992;4.206;2023-08-12T01:56:18;9.48;;;6.00;;
58615;SDS011;44385;51.992;4.206;2023-08-12T01:58:46;9.82;;;6.03;;
58615;SDS011;44385;51.992;4.206;2023-08-12T02:01:12;12.18;;;6.22;;
58615;SDS011;44385;51.992;4.206;2023-08-12T02:03:39;8.30;;;5.60;;
58615;SDS011;44385;51.992;4.206;2023-08-12T02:06:06;9.82;;;6.70;;
58615;SDS011;44385;51.992;4.206;2023-08-12T02:08:32;11.15;;;6.45;;
58615;SDS011;44385;51.992;4.206;2023-08-12T02:11:01;11.05;;;6.93;;
58615;SDS011;44385;51.992;4.206;2023-08-12T02:15:55;10.68;;;7.43;;
58615;SDS011;44385;51.992;4.206;2023-08-12T02:18:22;11.50;;;8.30;;
58615;SDS011;44385;51.992;4.206;2023-08-12T02:20:48;13.73;;;8.73;;
58615;SDS011;44385;51.992;4.206;2023-08-12T02:23:15;14.20;;;10.00;;
58615;SDS011;44385;51.992;4.206;2023-08-12T02:25:41;11.63;;;9.32;;
58615;SDS011;44385;51.992;4.206;2023-08-12T02:28:07;12.40;;;9.45;;
58615;SDS011;44385;51.992;4.206;2023-08-12T02:30:34;13.90;;;9.27;;
58615;SDS011;44385;51.992;4.206;2023-08-12T02:33:02;14.88;;;10.07;;
58615;SDS011;44385;51.992;4.206;2023-08-12T02:35:28;10.43;;;9.10;;
58615;SDS011;44385;51.992;4.206;2023-08-12T02:37:57;14.57;;;9.98;;
58615;SDS011;44385;51.992;4.206;2023-08-12T02:40:26;14.57;;;9.82;;
58615;SDS011;44385;51.992;4.206;2023-08-12T02:42:52;13.88;;;10.38;;
58615;SDS011;44385;51.992;4.206;2023-08-12T02:45:18;14.77;;;9.90;;
58615;SDS011;44385;51.992;4.206;2023-08-12T02:47:45;12.65;;;9.93;;
58615;SDS011;44385;51.992;4.206;2023-08-12T02:50:12;12.40;;;9.05;;
58615;SDS011;44385;51.992;4.206;2023-08-12T02:52:39;16.15;;;10.70;;
58615;SDS011;44385;51.992;4.206;2023-08-12T02:55:05;12.25;;;9.27;;
58615;SDS011;44385;51.992;4.206;2023-08-12T02:57:32;16.67;;;10.65;;
58615;SDS011;44385;51.992;4.206;2023-08-12T03:00:01;16.27;;;10.07;;
58615;SDS011;44385;51.992;4.206;2023-08-12T03:02:31;13.68;;;11.00;;
58615;SDS011;44385;51.992;4.206;2023-08-12T03:05:01;15.45;;;12.00;;
58615;SDS011;44385;51.992;4.206;2023-08-12T03:07:31;17.95;;;12.65;;
58615;SDS011;44385;51.992;4.206;2023-08-12T03:10:00;16.52;;;12.27;;
58615;SDS011;44385;51.992;4.206;2023-08-12T03:12:26;18.52;;;11.80;;
58615;SDS011;44385;51.992;4.206;2023-08-12T03:14:53;19.83;;;11.63;;
58615;SDS011;44385;51.992;4.206;2023-08-12T03:17:19;16.70;;;11.50;;
58615;SDS011;44385;51.992;4.206;2023-08-12T03:19:45;17.52;;;11.85;;
58615;SDS011;44385;51.992;4.206;2023-08-12T03:22:12;16.45;;;12.57;;
58615;SDS011;44385;51.992;4.206;2023-08-12T03:24:39;14.77;;;11.38;;
58615;SDS011;44385;51.992;4.206;2023-08-12T03:27:06;13.82;;;11.32;;
58615;SDS011;44385;51.992;4.206;2023-08-12T03:29:32;16.20;;;11.82;;
58615;SDS011;44385;51.992;4.206;2023-08-12T03:31:59;19.30;;;11.55;;
58615;SDS011;44385;51.992;4.206;2023-08-12T03:34:27;16.63;;;12.52;;
58615;SDS011;44385;51.992;4.206;2023-08-12T03:36:54;16.00;;;12.47;;
58615;SDS011;44385;51.992;4.206;2023-08-12T03:39:20;14.55;;;11.75;;
58615;SDS011;44385;51.992;4.206;2023-08-12T03:41:48;19.98;;;12.52;;
58615;SDS011;44385;51.992;4.206;2023-08-12T03:44:16;15.90;;;13.57;;
58615;SDS011;44385;51.992;4.206;2023-08-12T03:46:42;22.35;;;14.43;;
58615;SDS011;44385;51.992;4.206;2023-08-12T03:49:08;20.75;;;14.45;;
58615;SDS011;44385;51.992;4.206;2023-08-12T03:51:35;16.13;;;13.98;;
58615;SDS011;44385;51.992;4.206;2023-08-12T03:54:01;22.92;;;16.40;;
58615;SDS011;44385;51.992;4.206;2023-08-12T03:56:28;20.98;;;15.20;;
58615;SDS011;44385;51.992;4.206;2023-08-12T03:58:59;19.83;;;15.02;;
58615;SDS011;44385;51.992;4.206;2023-08-12T04:01:26;19.40;;;15.50;;
58615;SDS011;44385;51.992;4.206;2023-08-12T04:03:55;22.88;;;15.25;;
58615;SDS011;44385;51.992;4.206;2023-08-12T04:06:22;20.65;;;16.80;;
58615;SDS011;44385;51.992;4.206;2023-08-12T04:08:48;22.38;;;15.32;;
58615;SDS011;44385;51.992;4.206;2023-08-12T04:11:15;21.98;;;15.25;;
58615;SDS011;44385;51.992;4.206;2023-08-12T04:13:41;23.02;;;15.55;;
58615;SDS011;44385;51.992;4.206;2023-08-12T04:16:09;28.75;;;17.15;;
58615;SDS011;44385;51.992;4.206;2023-08-12T04:18:35;26.77;;;16.83;;
58615;SDS011;44385;51.992;4.206;2023-08-12T04:21:02;27.30;;;17.50;;
58615;SDS011;44385;51.992;4.206;2023-08-12T04:23:28;22.65;;;17.40;;
58615;SDS011;44385;51.992;4.206;2023-08-12T04:25:56;28.50;;;17.50;;
58615;SDS011;44385;51.992;4.206;2023-08-12T04:28:23;26.23;;;17.80;;
58615;SDS011;44385;51.992;4.206;2023-08-12T04:30:49;30.23;;;20.77;;
58615;SDS011;44385;51.992;4.206;2023-08-12T04:33:19;29.70;;;22.25;;
58615;SDS011;44385;51.992;4.206;2023-08-12T04:35:46;31.67;;;21.73;;
58615;SDS011;44385;51.992;4.206;2023-08-12T04:38:12;35.83;;;22.73;;
58615;SDS011;44385;51.992;4.206;2023-08-12T04:40:38;32.83;;;23.80;;
58615;SDS011;44385;51.992;4.206;2023-08-12T04:43:05;32.50;;;24.20;;
58615;SDS011;44385;51.992;4.206;2023-08-12T04:45:31;35.80;;;23.77;;
58615;SDS011;44385;51.992;4.206;2023-08-12T04:47:59;39.83;;;25.98;;
58615;SDS011;44385;51.992;4.206;2023-08-12T04:50:29;28.67;;;21.38;;
58615;SDS011;44385;51.992;4.206;2023-08-12T04:52:59;30.15;;;22.48;;
58615;SDS011;44385;51.992;4.206;2023-08-12T04:55:26;30.05;;;19.75;;
58615;SDS011;44385;51.992;4.206;2023-08-12T04:57:53;30.20;;;20.52;;
58615;SDS011;44385;51.992;4.206;2023-08-12T05:00:19;29.63;;;20.08;;
58615;SDS011;44385;51.992;4.206;2023-08-12T05:02:46;28.55;;;20.50;;
58615;SDS011;44385;51.992;4.206;2023-08-12T05:05:12;31.45;;;20.33;;
58615;SDS011;44385;51.992;4.206;2023-08-12T05:07:40;26.42;;;20.30;;
58615;SDS011;44385;51.992;4.206;2023-08-12T05:10:07;26.85;;;19.02;;
58615;SDS011;44385;51.992;4.206;2023-08-12T05:12:33;28.05;;;20.98;;
58615;SDS011;44385;51.992;4.206;2023-08-12T05:15:00;26.38;;;19.52;;
58615;SDS011;44385;51.992;4.206;2023-08-12T05:17:27;25.30;;;20.70;;
58615;SDS011;44385;51.992;4.206;2023-08-12T05:19:54;29.92;;;20.95;;
58615;SDS011;44385;51.992;4.206;2023-08-12T05:22:21;28.73;;;20.48;;
58615;SDS011;44385;51.992;4.206;2023-08-12T05:24:49;26.67;;;21.33;;
58615;SDS011;44385;51.992;4.206;2023-08-12T05:27:15;29.27;;;20.80;;
58615;SDS011;44385;51.992;4.206;2023-08-12T05:29:41;30.77;;;20.92;;
58615;SDS011;44385;51.992;4.206;2023-08-12T05:32:08;29.70;;;20.85;;
58615;SDS011;44385;51.992;4.206;2023-08-12T05:34:34;26.83;;;20.85;;
58615;SDS011;44385;51.992;4.206;2023-08-12T05:37:01;26.25;;;19.27;;
58615;SDS011;44385;51.992;4.206;2023-08-12T05:39:27;30.85;;;20.17;;
58615;SDS011;44385;51.992;4.206;2023-08-12T05:41:55;26.08;;;19.00;;
58615;SDS011;44385;51.992;4.206;2023-08-12T05:44:21;27.40;;;19.88;;
58615;SDS011;44385;51.992;4.206;2023-08-12T05:46:48;32.38;;;22.27;;
58615;SDS011;44385;51.992;4.206;2023-08-12T05:49:14;29.58;;;21.25;;
58615;SDS011;44385;51.992;4.206;2023-08-12T05:51:40;29.58;;;21.60;;
58615;SDS011;44385;51.992;4.206;2023-08-12T05:54:07;29.20;;;21.60;;
58615;SDS011;44385;51.992;4.206;2023-08-12T05:56:34;32.70;;;22.45;;
58615;SDS011;44385;51.992;4.206;2023-08-12T05:59:01;28.25;;;21.95;;
58615;SDS011;44385;51.992;4.206;2023-08-12T06:01:28;33.45;;;22.70;;
58615;SDS011;44385;51.992;4.206;2023-08-12T06:03:55;32.28;;;22.10;;
58615;SDS011;44385;51.992;4.206;2023-08-12T06:06:21;33.60;;;22.42;;
58615;SDS011;44385;51.992;4.206;2023-08-12T06:08:48;33.78;;;21.65;;
58615;SDS011;44385;51.992;4.206;2023-08-12T06:11:14;34.90;;;21.52;;
58615;SDS011;44385;51.992;4.206;2023-08-12T06:13:41;31.75;;;19.95;;
58615;SDS011;44385;51.992;4.206;2023-08-12T06:16:08;30.95;;;19.02;;
58615;SDS011;44385;51.992;4.206;2023-08-12T06:18:35;29.88;;;19.40;;
58615;SDS011;44385;51.992;4.206;2023-08-12T06:21:01;25.10;;;18.15;;
58615;SDS011;44385;51.992;4.206;2023-08-12T06:23:27;28.65;;;19.02;;
58615;SDS011;44385;51.992;4.206;2023-08-12T06:25:55;23.20;;;17.58;;
58615;SDS011;44385;51.992;4.206;2023-08-12T06:28:22;17.33;;;11.90;;
58615;SDS011;44385;51.992;4.206;2023-08-12T06:30:48;14.85;;;10.55;;
58615;SDS011;44385;51.992;4.206;2023-08-12T06:33:16;6.10;;;4.28;;
58615;SDS011;44385;51.992;4.206;2023-08-12T06:35:42;7.82;;;4.68;;
58615;SDS011;44385;51.992;4.206;2023-08-12T06:38:08;9.60;;;4.40;;
58615;SDS011;44385;51.992;4.206;2023-08-12T06:40:37;5.80;;;2.92;;
58615;SDS011;44385;51.992;4.206;2023-08-12T06:43:03;8.10;;;3.25;;
58615;SDS011;44385;51.992;4.206;2023-08-12T06:45:30;5.82;;;3.00;;
58615;SDS011;44385;51.992;4.206;2023-08-12T06:47:57;8.10;;;2.63;;
58615;SDS011;44385;51.992;4.206;2023-08-12T06:50:28;5.43;;;2.40;;
58615;SDS011;44385;51.992;4.206;2023-08-12T06:52:57;6.13;;;2.45;;
58615;SDS011;44385;51.992;4.206;2023-08-12T06:55:25;6.18;;;2.45;;
58615;SDS011;44385;51.992;4.206;2023-08-12T06:57:52;2.95;;;2.20;;
58615;SDS011;44385;51.992;4.206;2023-08-12T07:00:18;5.75;;;2.05;;
58615;SDS011;44385;51.992;4.206;2023-08-12T07:02:45;5.82;;;1.98;;
58615;SDS011;44385;51.992;4.206;2023-08-12T07:05:11;6.20;;;2.03;;
58615;SDS011;44385;51.992;4.206;2023-08-12T07:07:39;8.80;;;2.47;;
58615;SDS011;44385;51.992;4.206;2023-08-12T07:10:05;7.80;;;3.35;;
58615;SDS011;44385;51.992;4.206;2023-08-12T07:12:32;7.40;;;2.80;;
58615;SDS011;44385;51.992;4.206;2023-08-12T07:14:59;7.32;;;3.35;;
58615;SDS011;44385;51.992;4.206;2023-08-12T07:17:26;8.43;;;3.53;;
58615;SDS011;44385;51.992;4.206;2023-08-12T07:19:52;8.25;;;3.25;;
58615;SDS011;44385;51.992;4.206;2023-08-12T07:22:19;9.68;;;2.83;;
58615;SDS011;44385;51.992;4.206;2023-08-12T07:24:46;5.47;;;2.80;;
58615;SDS011;44385;51.992;4.206;2023-08-12T07:27:13;7.45;;;2.60;;
58615;SDS011;44385;51.992;4.206;2023-08-12T07:29:39;12.75;;;3.55;;
58615;SDS011;44385;51.992;4.206;2023-08-12T07:32:06;9.43;;;2.47;;
58615;SDS011;44385;51.992;4.206;2023-08-12T07:34:32;10.05;;;2.85;;
58615;SDS011;44385;51.992;4.206;2023-08-12T07:36:59;7.88;;;2.58;;
58615;SDS011;44385;51.992;4.206;2023-08-12T07:39:26;5.35;;;2.85;;
58615;SDS011;44385;51.992;4.206;2023-08-12T07:41:53;12.43;;;3.17;;
58615;SDS011;44385;51.992;4.206;2023-08-12T07:44:20;9.18;;;2.63;;
58615;SDS011;44385;51.992;4.206;2023-08-12T07:46:46;7.65;;;2.42;;
58615;SDS011;44385;51.992;4.206;2023-08-12T07:49:12;11.40;;;2.85;;
58615;SDS011;44385;51.992;4.206;2023-08-12T07:51:39;9.82;;;2.80;;
58615;SDS011;44385;51.992;4.206;2023-08-12T07:54:06;6.97;;;2.58;;
58615;SDS011;44385;51.992;4.206;2023-08-12T07:56:32;9.38;;;2.92;;
58615;SDS011;44385;51.992;4.206;2023-08-12T07:59:01;10.02;;;3.20;;
58615;SDS011;44385;51.992;4.206;2023-08-12T08:01:27;8.27;;;2.67;;
58615;SDS011;44385;51.992;4.206;2023-08-12T08:03:55;9.52;;;2.50;;
58615;SDS011;44385;51.992;4.206;2023-08-12T08:06:22;7.30;;;2.40;;
58615;SDS011;44385;51.992;4.206;2023-08-12T08:08:49;8.80;;;2.15;;
58615;SDS011;44385;51.992;4.206;2023-08-12T08:11:15;4.10;;;1.75;;
58615;SDS011;44385;51.992;4.206;2023-08-12T08:13:42;6.47;;;2.38;;
58615;SDS011;44385;51.992;4.206;2023-08-12T08:16:10;9.75;;;3.25;;
58615;SDS011;44385;51.992;4.206;2023-08-12T08:18:36;8.70;;;2.85;;
58615;SDS011;44385;51.992;4.206;2023-08-12T08:21:03;9.68;;;3.67;;
58615;SDS011;44385;51.992;4.206;2023-08-12T08:23:31;9.45;;;3.47;;
58615;SDS011;44385;51.992;4.206;2023-08-12T08:25:58;8.70;;;4.00;;
58615;SDS011;44385;51.992;4.206;2023-08-12T08:28:25;8.23;;;3.22;;
58615;SDS011;44385;51.992;4.206;2023-08-12T08:30:52;6.47;;;2.97;;
58615;SDS011;44385;51.992;4.206;2023-08-12T08:33:20;10.23;;;3.50;;
58615;SDS011;44385;51.992;4.206;2023-08-12T08:35:47;8.80;;;3.40;;
58615;SDS011;44385;51.992;4.206;2023-08-12T08:38:13;12.55;;;3.55;;
58615;SDS011;44385;51.992;4.206;2023-08-12T08:40:40;7.43;;;2.50;;
58615;SDS011;44385;51.992;4.206;2023-08-12T08:43:07;8.45;;;3.47;;
58615;SDS011;44385;51.992;4.206;2023-08-12T08:45:33;6.45;;;2.17;;
58615;SDS011;44385;51.992;4.206;2023-08-12T08:48:00;3.83;;;1.80;;
58615;SDS011;44385;51.992;4.206;2023-08-12T08:50:28;7.13;;;2.13;;
58615;SDS011;44385;51.992;4.206;2023-08-12T08:52:56;8.32;;;2.58;;
58615;SDS011;44385;51.992;4.206;2023-08-12T08:55:23;3.22;;;2.10;;
58615;SDS011;44385;51.992;4.206;2023-08-12T08:57:50;5.80;;;1.90;;
58615;SDS011;44385;51.992;4.206;2023-08-12T09:00:16;5.43;;;2.03;;
58615;SDS011;44385;51.992;4.206;2023-08-12T09:02:43;7.57;;;1.67;;
58615;SDS011;44385;51.992;4.206;2023-08-12T09:05:10;7.82;;;2.22;;
58615;SDS011;44385;51.992;4.206;2023-08-12T09:07:38;8.90;;;2.60;;
58615;SDS011;44385;51.992;4.206;2023-08-12T09:10:06;9.57;;;2.63;;
58615;SDS011;44385;51.992;4.206;2023-08-12T09:12:32;9.20;;;2.10;;
58615;SDS011;44385;51.992;4.206;2023-08-12T09:15:02;4.55;;;1.75;;
58615;SDS011;44385;51.992;4.206;2023-08-12T09:17:32;5.80;;;2.10;;
58615;SDS011;44385;51.992;4.206;2023-08-12T09:20:00;9.88;;;2.03;;
58615;SDS011;44385;51.992;4.206;2023-08-12T09:22:26;7.28;;;2.05;;
58615;SDS011;44385;51.992;4.206;2023-08-12T09:24:57;11.18;;;2.17;;
58615;SDS011;44385;51.992;4.206;2023-08-12T09:27:25;8.10;;;3.05;;
58615;SDS011;44385;51.992;4.206;2023-08-12T09:29:55;11.85;;;2.90;;
58615;SDS011;44385;51.992;4.206;2023-08-12T09:32:21;6.20;;;2.28;;
58615;SDS011;44385;51.992;4.206;2023-08-12T09:34:49;6.90;;;3.10;;
58615;SDS011;44385;51.992;4.206;2023-08-12T09:37:16;6.78;;;2.05;;
58615;SDS011;44385;51.992;4.206;2023-08-12T09:39:43;5.88;;;1.98;;
58615;SDS011;44385;51.992;4.206;2023-08-12T09:42:11;6.10;;;2.70;;
58615;SDS011;44385;51.992;4.206;2023-08-12T09:44:37;9.40;;;2.88;;
58615;SDS011;44385;51.992;4.206;2023-08-12T09:47:05;6.10;;;2.28;;
58615;SDS011;44385;51.992;4.206;2023-08-12T09:49:31;6.00;;;2.40;;
58615;SDS011;44385;51.992;4.206;2023-08-12T09:51:59;7.88;;;2.38;;
58615;SDS011;44385;51.992;4.206;2023-08-12T09:54:27;7.43;;;2.65;;
58615;SDS011;44385;51.992;4.206;2023-08-12T09:56:54;7.93;;;2.53;;
58615;SDS011;44385;51.992;4.206;2023-08-12T09:59:27;9.95;;;3.40;;
58615;SDS011;44385;51.992;4.206;2023-08-12T10:01:57;6.45;;;2.08;;
58615;SDS011;44385;51.992;4.206;2023-08-12T10:04:39;5.63;;;2.00;;
58615;SDS011;44385;51.992;4.206;2023-08-12T10:07:07;5.53;;;2.40;;
58615;SDS011;44385;51.992;4.206;2023-08-12T10:09:35;8.25;;;2.55;;
58615;SDS011;44385;51.992;4.206;2023-08-12T10:12:02;8.50;;;3.17;;
58615;SDS011;44385;51.992;4.206;2023-08-12T10:14:33;8.35;;;2.70;;
58615;SDS011;44385;51.992;4.206;2023-08-12T10:16:59;7.97;;;2.55;;
58615;SDS011;44385;51.992;4.206;2023-08-12T10:19:26;6.43;;;2.72;;
58615;SDS011;44385;51.992;4.206;2023-08-12T10:21:54;7.55;;;2.83;;
58615;SDS011;44385;51.992;4.206;2023-08-12T10:24:21;9.20;;;2.63;;
58615;SDS011;44385;51.992;4.206;2023-08-12T10:26:48;8.15;;;2.33;;
58615;SDS011;44385;51.992;4.206;2023-08-12T10:29:15;8.93;;;2.88;;
58615;SDS011;44385;51.992;4.206;2023-08-12T10:31:43;8.27;;;3.05;;
58615;SDS011;44385;51.992;4.206;2023-08-12T10:34:17;7.22;;;2.78;;
58615;SDS011;44385;51.992;4.206;2023-08-12T10:36:43;10.82;;;2.38;;
58615;SDS011;44385;51.992;4.206;2023-08-12T10:39:11;9.20;;;2.88;;
58615;SDS011;44385;51.992;4.206;2023-08-12T10:41:37;10.00;;;2.50;;
58615;SDS011;44385;51.992;4.206;2023-08-12T10:44:05;9.60;;;3.15;;
58615;SDS011;44385;51.992;4.206;2023-08-12T10:46:32;7.13;;;2.47;;
58615;SDS011;44385;51.992;4.206;2023-08-12T10:49:02;10.85;;;3.58;;
58615;SDS011;44385;51.992;4.206;2023-08-12T10:54:22;9.25;;;2.70;;
58615;SDS011;44385;51.992;4.206;2023-08-12T10:57:08;8.45;;;2.55;;
58615;SDS011;44385;51.992;4.206;2023-08-12T10:59:56;7.78;;;2.65;;
58615;SDS011;44385;51.992;4.206;2023-08-12T11:02:29;8.45;;;2.85;;
58615;SDS011;44385;51.992;4.206;2023-08-12T11:05:02;8.23;;;2.47;;
58615;SDS011;44385;51.992;4.206;2023-08-12T11:07:32;8.23;;;3.00;;
58615;SDS011;44385;51.992;4.206;2023-08-12T11:10:05;6.65;;;2.58;;
58615;SDS011;44385;51.992;4.206;2023-08-12T11:12:35;8.07;;;3.00;;
58615;SDS011;44385;51.992;4.206;2023-08-12T11:15:03;12.90;;;3.08;;
58615;SDS011;44385;51.992;4.206;2023-08-12T11:17:33;12.73;;;3.70;;
58615;SDS011;44385;51.992;4.206;2023-08-12T11:20:02;9.32;;;3.95;;
58615;SDS011;44385;51.992;4.206;2023-08-12T11:22:35;10.98;;;3.50;;
58615;SDS011;44385;51.992;4.206;2023-08-12T11:25:02;12.07;;;3.88;;
58615;SDS011;44385;51.992;4.206;2023-08-12T11:27:35;9.35;;;3.10;;
58615;SDS011;44385;51.992;4.206;2023-08-12T11:30:02;11.85;;;3.40;;
58615;SDS011;44385;51.992;4.206;2023-08-12T11:32:35;13.15;;;3.45;;
58615;SDS011;44385;51.992;4.206;2023-08-12T11:35:03;8.20;;;2.95;;
58615;SDS011;44385;51.992;4.206;2023-08-12T11:37:31;9.40;;;3.13;;
58615;SDS011;44385;51.992;4.206;2023-08-12T11:39:57;13.13;;;2.88;;
58615;SDS011;44385;51.992;4.206;2023-08-12T11:42:27;8.23;;;2.75;;
58615;SDS011;44385;51.992;4.206;2023-08-12T11:44:53;9.50;;;3.15;;
58615;SDS011;44385;51.992;4.206;2023-08-12T11:47:20;9.70;;;2.80;;
58615;SDS011;44385;51.992;4.206;2023-08-12T11:49:46;12.32;;;3.30;;
58615;SDS011;44385;51.992;4.206;2023-08-12T11:52:14;11.68;;;2.70;;
58615;SDS011;44385;51.992;4.206;2023-08-12T11:54:41;9.17;;;2.43;;
58615;SDS011;44385;51.992;4.206;2023-08-12T11:57:08;12.52;;;3.40;;
58615;SDS011;44385;51.992;4.206;2023-08-12T11:59:34;8.98;;;2.60;;
58615;SDS011;44385;51.992;4.206;2023-08-12T12:02:02;8.02;;;2.60;;
58615;SDS011;44385;51.992;4.206;2023-08-12T12:04:32;13.60;;;3.47;;
58615;SDS011;44385;51.992;4.206;2023-08-12T12:06:59;11.13;;;2.75;;
58615;SDS011;44385;51.992;4.206;2023-08-12T12:09:32;10.40;;;2.72;;
58615;SDS011;44385;51.992;4.206;2023-08-12T12:12:01;11.73;;;3.00;;
58615;SDS011;44385;51.992;4.206;2023-08-12T12:14:28;6.30;;;2.50;;
58615;SDS011;44385;51.992;4.206;2023-08-12T12:16:57;7.43;;;2.45;;
58615;SDS011;44385;51.992;4.206;2023-08-12T12:21:53;11.07;;;3.25;;
58615;SDS011;44385;51.992;4.206;2023-08-12T12:24:19;10.77;;;2.65;;
58615;SDS011;44385;51.992;4.206;2023-08-12T12:26:47;10.93;;;2.60;;
58615;SDS011;44385;51.992;4.206;2023-08-12T12:29:14;10.40;;;3.17;;
58615;SDS011;44385;51.992;4.206;2023-08-12T12:31:41;13.13;;;3.38;;
58615;SDS011;44385;51.992;4.206;2023-08-12T12:34:07;7.78;;;2.78;;
58615;SDS011;44385;51.992;4.206;2023-08-12T12:36:35;12.60;;;2.85;;
58615;SDS011;44385;51.992;4.206;2023-08-12T12:39:02;11.80;;;3.05;;
58615;SDS011;44385;51.992;4.206;2023-08-12T12:41:32;12.18;;;3.08;;
58615;SDS011;44385;51.992;4.206;2023-08-12T12:44:00;15.48;;;3.67;;
58615;SDS011;44385;51.992;4.206;2023-08-12T12:46:27;10.52;;;2.53;;
58615;SDS011;44385;51.992;4.206;2023-08-12T12:48:54;11.32;;;3.47;;
58615;SDS011;44385;51.992;4.206;2023-08-12T12:51:20;9.90;;;3.40;;
58615;SDS011;44385;51.992;4.206;2023-08-12T12:53:46;8.90;;;3.03;;
58615;SDS011;44385;51.992;4.206;2023-08-12T12:56:13;12.30;;;3.25;;
58615;SDS011;44385;51.992;4.206;2023-08-12T12:58:39;9.88;;;3.08;;
58615;SDS011;44385;51.992;4.206;2023-08-12T13:01:07;11.68;;;2.40;;
58615;SDS011;44385;51.992;4.206;2023-08-12T13:03:34;9.30;;;2.83;;
58615;SDS011;44385;51.992;4.206;2023-08-12T13:06:00;10.48;;;2.72;;
58615;SDS011;44385;51.992;4.206;2023-08-12T13:08:28;11.30;;;3.90;;
58615;SDS011;44385;51.992;4.206;2023-08-12T13:13:22;12.07;;;3.67;;
58615;SDS011;44385;51.992;4.206;2023-08-12T13:15:49;15.75;;;3.85;;
58615;SDS011;44385;51.992;4.206;2023-08-12T13:18:17;9.73;;;3.20;;
58615;SDS011;44385;51.992;4.206;2023-08-12T13:20:43;18.15;;;3.83;;
58615;SDS011;44385;51.992;4.206;2023-08-12T13:23:10;11.18;;;3.40;;
58615;SDS011;44385;51.992;4.206;2023-08-12T13:25:37;12.00;;;3.28;;
58615;SDS011;44385;51.992;4.206;2023-08-12T13:28:03;12.75;;;4.30;;
58615;SDS011;44385;51.992;4.206;2023-08-12T13:30:30;9.75;;;3.08;;
58615;SDS011;44385;51.992;4.206;2023-08-12T13:32:57;11.60;;;3.25;;
58615;SDS011;44385;51.992;4.206;2023-08-12T13:37:53;9.75;;;3.35;;
58615;SDS011;44385;51.992;4.206;2023-08-12T13:40:22;15.35;;;4.28;;
58615;SDS011;44385;51.992;4.206;2023-08-12T13:42:49;11.93;;;3.35;;
58615;SDS011;44385;51.992;4.206;2023-08-12T13:45:16;10.82;;;3.40;;
58615;SDS011;44385;51.992;4.206;2023-08-12T13:47:42;13.10;;;4.10;;
58615;SDS011;44385;51.992;4.206;2023-08-12T13:50:11;11.60;;;3.67;;
58615;SDS011;44385;51.992;4.206;2023-08-12T13:52:38;10.98;;;2.97;;
58615;SDS011;44385;51.992;4.206;2023-08-12T13:55:06;13.10;;;3.28;;
58615;SDS011;44385;51.992;4.206;2023-08-12T13:57:34;13.38;;;3.88;;
58615;SDS011;44385;51.992;4.206;2023-08-12T14:00:01;12.07;;;3.28;;
58615;SDS011;44385;51.992;4.206;2023-08-12T14:02:30;7.80;;;2.67;;
58615;SDS011;44385;51.992;4.206;2023-08-12T14:04:57;10.18;;;2.83;;
58615;SDS011;44385;51.992;4.206;2023-08-12T14:09:52;11.18;;;2.83;;
58615;SDS011;44385;51.992;4.206;2023-08-12T14:12:20;9.70;;;3.70;;
58615;SDS011;44385;51.992;4.206;2023-08-12T14:14:46;9.93;;;3.30;;
58615;SDS011;44385;51.992;4.206;2023-08-12T14:17:13;11.10;;;3.05;;
58615;SDS011;44385;51.992;4.206;2023-08-12T14:19:42;13.77;;;3.42;;
58615;SDS011;44385;51.992;4.206;2023-08-12T14:22:09;11.70;;;3.08;;
58615;SDS011;44385;51.992;4.206;2023-08-12T14:24:35;9.73;;;3.20;;
58615;SDS011;44385;51.992;4.206;2023-08-12T14:27:02;9.13;;;3.30;;
58615;SDS011;44385;51.992;4.206;2023-08-12T14:29:32;9.63;;;3.10;;
58615;SDS011;44385;51.992;4.206;2023-08-12T14:32:00;12.23;;;4.00;;
58615;SDS011;44385;51.992;4.206;2023-08-12T14:34:26;16.73;;;3.40;;
58615;SDS011;44385;51.992;4.206;2023-08-12T14:36:53;9.23;;;3.53;;
58615;SDS011;44385;51.992;4.206;2023-08-12T14:39:19;8.90;;;3.17;;
58615;SDS011;44385;51.992;4.206;2023-08-12T14:41:46;9.80;;;2.95;;
58615;SDS011;44385;51.992;4.206;2023-08-12T14:44:13;13.30;;;3.63;;
58615;SDS011;44385;51.992;4.206;2023-08-12T14:46:41;8.88;;;2.45;;
58615;SDS011;44385;51.992;4.206;2023-08-12T14:49:08;10.23;;;2.65;;
58615;SDS011;44385;51.992;4.206;2023-08-12T14:51:34;15.52;;;3.25;;
58615;SDS011;44385;51.992;4.206;2023-08-12T14:54:01;9.48;;;2.75;;